sensor_id;sensor_type;location;lat;lon;timestamp;temperature;humidity
34927;DHT22;21132;48.308;14.274;2022-09-03T00:04:46;18.50;43.90
34927;DHT22;21132;48.308;14.274;2022-09-03T00:08:24;18.40;44.70
34927;DHT22;21132;48.308;14.274;2022-09-03T00:10:39;18.30;44.90
34927;DHT22;21132;48.308;14.274;2022-09-03T00:13:15;18.30;45.40
34927;DHT22;21132;48.308;14.274;2022-09-03T00:15:42;18.20;45.50
34927;DHT22;21132;48.308;14.274;2022-09-03T00:18:18;18.10;45.60
34927;DHT22;21132;48.308;14.274;2022-09-03T00:20:58;18.10;45.80
34927;DHT22;21132;48.308;14.274;2022-09-03T00:23:34;18.10;46.10
34927;DHT22;21132;48.308;14.274;2022-09-03T00:29:08;18.00;46.30
34927;DHT22;21132;48.308;14.274;2022-09-03T00:31:40;17.90;46.40
34927;DHT22;21132;48.308;14.274;2022-09-03T00:34:28;17.90;46.50
34927;DHT22;21132;48.308;14.274;2022-09-03T00:36:55;17.80;46.90
34927;DHT22;21132;48.308;14.274;2022-09-03T00:39:24;17.80;46.90
34927;DHT22;21132;48.308;14.274;2022-09-03T00:50:24;17.60;47.70
34927;DHT22;21132;48.308;14.274;2022-09-03T01:07:16;17.30;48.60
34927;DHT22;21132;48.308;14.274;2022-09-03T01:09:55;17.30;48.60
34927;DHT22;21132;48.308;14.274;2022-09-03T01:21:03;17.10;49.20
34927;DHT22;21132;48.308;14.274;2022-09-03T01:23:41;17.00;49.10
34927;DHT22;21132;48.308;14.274;2022-09-03T01:29:15;17.00;50.50
34927;DHT22;21132;48.308;14.274;2022-09-03T01:37:56;16.90;51.40
34927;DHT22;21132;48.308;14.274;2022-09-03T01:41:14;16.90;51.50
34927;DHT22;21132;48.308;14.274;2022-09-03T01:47:39;16.80;51.90
34927;DHT22;21132;48.308;14.274;2022-09-03T01:50:27;16.80;51.60
34927;DHT22;21132;48.308;14.274;2022-09-03T01:52:58;16.80;51.60
34927;DHT22;21132;48.308;14.274;2022-09-03T01:58:25;16.70;52.40
34927;DHT22;21132;48.308;14.274;2022-09-03T02:00:59;16.70;52.40
34927;DHT22;21132;48.308;14.274;2022-09-03T02:03:40;16.60;52.70
34927;DHT22;21132;48.308;14.274;2022-09-03T02:06:10;16.60;52.80
34927;DHT22;21132;48.308;14.274;2022-09-03T02:08:39;16.60;52.90
34927;DHT22;21132;48.308;14.274;2022-09-03T02:11:08;16.50;53.30
34927;DHT22;21132;48.308;14.274;2022-09-03T02:13:37;16.50;53.40
34927;DHT22;21132;48.308;14.274;2022-09-03T02:16:13;16.40;53.50
34927;DHT22;21132;48.308;14.274;2022-09-03T02:18:43;16.40;54.20
34927;DHT22;21132;48.308;14.274;2022-09-03T02:21:15;16.40;54.10
34927;DHT22;21132;48.308;14.274;2022-09-03T02:23:41;16.30;54.20
34927;DHT22;21132;48.308;14.274;2022-09-03T02:26:09;16.30;54.70
34927;DHT22;21132;48.308;14.274;2022-09-03T02:28:36;16.30;55.60
34927;DHT22;21132;48.308;14.274;2022-09-03T02:31:02;16.30;56.30
34927;DHT22;21132;48.308;14.274;2022-09-03T02:33:30;16.20;56.40
34927;DHT22;21132;48.308;14.274;2022-09-03T02:35:57;16.30;56.10
34927;DHT22;21132;48.308;14.274;2022-09-03T02:38:24;16.30;55.50
34927;DHT22;21132;48.308;14.274;2022-09-03T02:40:50;16.20;55.10
34927;DHT22;21132;48.308;14.274;2022-09-03T02:46:09;16.30;55.40
34927;DHT22;21132;48.308;14.274;2022-09-03T02:48:37;16.20;55.10
34927;DHT22;21132;48.308;14.274;2022-09-03T02:51:03;16.20;55.00
34927;DHT22;21132;48.308;14.274;2022-09-03T02:53:29;16.10;54.80
34927;DHT22;21132;48.308;14.274;2022-09-03T02:55:59;16.10;55.00
34927;DHT22;21132;48.308;14.274;2022-09-03T02:58:25;16.10;55.20
34927;DHT22;21132;48.308;14.274;2022-09-03T03:00:52;16.10;55.20
34927;DHT22;21132;48.308;14.274;2022-09-03T03:03:19;16.00;55.10
34927;DHT22;21132;48.308;14.274;2022-09-03T03:05:48;16.00;55.20
34927;DHT22;21132;48.308;14.274;2022-09-03T03:08:19;15.90;55.30
34927;DHT22;21132;48.308;14.274;2022-09-03T03:10:48;15.90;55.50
34927;DHT22;21132;48.308;14.274;2022-09-03T03:13:15;15.90;55.20
34927;DHT22;21132;48.308;14.274;2022-09-03T03:15:41;15.80;55.90
34927;DHT22;21132;48.308;14.274;2022-09-03T03:18:07;15.80;56.30
34927;DHT22;21132;48.308;14.274;2022-09-03T03:20:37;15.80;56.10
34927;DHT22;21132;48.308;14.274;2022-09-03T03:23:04;15.80;56.60
34927;DHT22;21132;48.308;14.274;2022-09-03T03:25:34;15.80;57.10
34927;DHT22;21132;48.308;14.274;2022-09-03T03:28:00;15.70;57.10
34927;DHT22;21132;48.308;14.274;2022-09-03T03:30:27;15.70;57.30
34927;DHT22;21132;48.308;14.274;2022-09-03T03:32:54;15.70;57.40
34927;DHT22;21132;48.308;14.274;2022-09-03T03:35:20;15.70;57.20
34927;DHT22;21132;48.308;14.274;2022-09-03T03:37:45;15.70;57.30
34927;DHT22;21132;48.308;14.274;2022-09-03T03:40:11;15.70;57.30
34927;DHT22;21132;48.308;14.274;2022-09-03T03:42:38;15.70;57.00
34927;DHT22;21132;48.308;14.274;2022-09-03T03:45:04;15.60;56.80
34927;DHT22;21132;48.308;14.274;2022-09-03T03:47:31;15.60;56.70
34927;DHT22;21132;48.308;14.274;2022-09-03T03:49:57;15.60;56.80
34927;DHT22;21132;48.308;14.274;2022-09-03T03:52:24;15.60;56.90
34927;DHT22;21132;48.308;14.274;2022-09-03T03:54:50;15.50;56.80
34927;DHT22;21132;48.308;14.274;2022-09-03T03:57:17;15.50;56.70
34927;DHT22;21132;48.308;14.274;2022-09-03T03:59:44;15.50;57.00
34927;DHT22;21132;48.308;14.274;2022-09-03T04:02:10;15.50;57.20
34927;DHT22;21132;48.308;14.274;2022-09-03T04:04:36;15.40;57.50
34927;DHT22;21132;48.308;14.274;2022-09-03T04:07:02;15.40;57.40
34927;DHT22;21132;48.308;14.274;2022-09-03T04:09:27;15.40;57.90
34927;DHT22;21132;48.308;14.274;2022-09-03T04:11:53;15.30;57.60
34927;DHT22;21132;48.308;14.274;2022-09-03T04:14:21;15.30;57.80
34927;DHT22;21132;48.308;14.274;2022-09-03T04:16:46;15.30;57.60
34927;DHT22;21132;48.308;14.274;2022-09-03T04:19:12;15.30;57.70
34927;DHT22;21132;48.308;14.274;2022-09-03T04:21:38;15.30;58.00
34927;DHT22;21132;48.308;14.274;2022-09-03T04:24:05;15.30;57.90
34927;DHT22;21132;48.308;14.274;2022-09-03T04:26:32;15.20;58.00
34927;DHT22;21132;48.308;14.274;2022-09-03T04:29:01;15.20;57.90
34927;DHT22;21132;48.308;14.274;2022-09-03T04:31:27;15.20;58.10
34927;DHT22;21132;48.308;14.274;2022-09-03T04:33:53;15.20;58.00
34927;DHT22;21132;48.308;14.274;2022-09-03T04:36:24;15.20;58.00
34927;DHT22;21132;48.308;14.274;2022-09-03T04:38:52;15.20;58.30
34927;DHT22;21132;48.308;14.274;2022-09-03T04:41:26;15.20;58.10
34927;DHT22;21132;48.308;14.274;2022-09-03T04:43:54;15.10;58.00
34927;DHT22;21132;48.308;14.274;2022-09-03T04:46:22;15.10;58.00
34927;DHT22;21132;48.308;14.274;2022-09-03T04:48:53;15.20;58.30
34927;DHT22;21132;48.308;14.274;2022-09-03T04:51:22;15.10;58.50
34927;DHT22;21132;48.308;14.274;2022-09-03T04:53:56;15.20;58.60
34927;DHT22;21132;48.308;14.274;2022-09-03T04:56:27;15.20;58.70
34927;DHT22;21132;48.308;14.274;2022-09-03T04:58:58;15.20;58.60
34927;DHT22;21132;48.308;14.274;2022-09-03T05:01:27;15.20;58.80
34927;DHT22;21132;48.308;14.274;2022-09-03T05:03:55;15.30;59.20
34927;DHT22;21132;48.308;14.274;2022-09-03T05:06:21;15.30;59.00
34927;DHT22;21132;48.308;14.274;2022-09-03T05:08:50;15.30;59.00
34927;DHT22;21132;48.308;14.274;2022-09-03T05:11:17;15.40;59.10
34927;DHT22;21132;48.308;14.274;2022-09-03T05:13:47;15.40;58.90
34927;DHT22;21132;48.308;14.274;2022-09-03T05:16:13;15.50;59.00
34927;DHT22;21132;48.308;14.274;2022-09-03T05:18:40;15.50;58.90
34927;DHT22;21132;48.308;14.274;2022-09-03T05:21:12;15.60;59.10
34927;DHT22;21132;48.308;14.274;2022-09-03T05:23:40;15.60;59.10
34927;DHT22;21132;48.308;14.274;2022-09-03T05:26:09;15.70;59.20
34927;DHT22;21132;48.308;14.274;2022-09-03T05:28:37;15.80;58.90
34927;DHT22;21132;48.308;14.274;2022-09-03T05:31:12;15.90;58.90
34927;DHT22;21132;48.308;14.274;2022-09-03T05:33:44;15.90;59.10
34927;DHT22;21132;48.308;14.274;2022-09-03T05:36:20;16.00;58.90
34927;DHT22;21132;48.308;14.274;2022-09-03T05:38:48;16.00;58.70
34927;DHT22;21132;48.308;14.274;2022-09-03T05:41:15;16.10;58.50
34927;DHT22;21132;48.308;14.274;2022-09-03T05:43:41;16.20;58.50
34927;DHT22;21132;48.308;14.274;2022-09-03T05:46:13;16.30;58.70
34927;DHT22;21132;48.308;14.274;2022-09-03T05:48:40;16.30;58.80
34927;DHT22;21132;48.308;14.274;2022-09-03T05:51:15;16.40;58.90
34927;DHT22;21132;48.308;14.274;2022-09-03T05:53:43;16.50;58.80
34927;DHT22;21132;48.308;14.274;2022-09-03T05:56:11;16.60;58.60
34927;DHT22;21132;48.308;14.274;2022-09-03T05:58:39;16.60;58.40
34927;DHT22;21132;48.308;14.274;2022-09-03T06:03:37;16.80;58.20
34927;DHT22;21132;48.308;14.274;2022-09-03T06:06:03;16.80;57.80
34927;DHT22;21132;48.308;14.274;2022-09-03T06:08:29;16.90;57.50
34927;DHT22;21132;48.308;14.274;2022-09-03T06:10:59;16.90;57.20
34927;DHT22;21132;48.308;14.274;2022-09-03T06:13:25;17.00;56.90
34927;DHT22;21132;48.308;14.274;2022-09-03T06:16:03;17.10;56.70
34927;DHT22;21132;48.308;14.274;2022-09-03T06:18:30;17.10;56.50
34927;DHT22;21132;48.308;14.274;2022-09-03T06:20:57;17.20;56.40
34927;DHT22;21132;48.308;14.274;2022-09-03T06:23:23;17.30;56.30
34927;DHT22;21132;48.308;14.274;2022-09-03T06:26:08;17.40;56.00
34927;DHT22;21132;48.308;14.274;2022-09-03T06:28:37;17.60;55.90
34927;DHT22;21132;48.308;14.274;2022-09-03T06:31:06;17.80;55.90
34927;DHT22;21132;48.308;14.274;2022-09-03T06:33:33;18.00;55.60
34927;DHT22;21132;48.308;14.274;2022-09-03T06:36:00;18.20;55.50
34927;DHT22;21132;48.308;14.274;2022-09-03T06:38:28;18.40;55.40
34927;DHT22;21132;48.308;14.274;2022-09-03T06:40:57;18.70;55.00
34927;DHT22;21132;48.308;14.274;2022-09-03T06:43:27;18.90;54.60
34927;DHT22;21132;48.308;14.274;2022-09-03T06:46:00;19.10;53.40
34927;DHT22;21132;48.308;14.274;2022-09-03T06:48:28;19.30;52.70
34927;DHT22;21132;48.308;14.274;2022-09-03T06:50:59;19.40;52.90
34927;DHT22;21132;48.308;14.274;2022-09-03T06:53:27;19.60;51.50
34927;DHT22;21132;48.308;14.274;2022-09-03T06:56:04;19.60;51.00
34927;DHT22;21132;48.308;14.274;2022-09-03T06:58:35;19.60;50.70
34927;DHT22;21132;48.308;14.274;2022-09-03T07:01:19;19.70;50.50
34927;DHT22;21132;48.308;14.274;2022-09-03T07:03:47;19.70;50.40
34927;DHT22;21132;48.308;14.274;2022-09-03T07:06:15;19.70;50.40
34927;DHT22;21132;48.308;14.274;2022-09-03T07:08:41;19.70;50.20
34927;DHT22;21132;48.308;14.274;2022-09-03T07:11:10;19.70;50.10
34927;DHT22;21132;48.308;14.274;2022-09-03T07:13:38;19.70;50.00
34927;DHT22;21132;48.308;14.274;2022-09-03T07:16:07;19.80;49.70
34927;DHT22;21132;48.308;14.274;2022-09-03T07:18:34;19.80;49.80
34927;DHT22;21132;48.308;14.274;2022-09-03T07:21:06;19.80;49.50
34927;DHT22;21132;48.308;14.274;2022-09-03T07:23:33;19.90;49.60
34927;DHT22;21132;48.308;14.274;2022-09-03T07:26:01;20.00;49.40
34927;DHT22;21132;48.308;14.274;2022-09-03T07:28:29;20.10;49.50
34927;DHT22;21132;48.308;14.274;2022-09-03T07:31:01;20.20;49.40
34927;DHT22;21132;48.308;14.274;2022-09-03T07:33:28;20.40;49.30
34927;DHT22;21132;48.308;14.274;2022-09-03T07:36:00;20.50;49.10
34927;DHT22;21132;48.308;14.274;2022-09-03T07:38:26;20.70;48.60
34927;DHT22;21132;48.308;14.274;2022-09-03T07:41:03;20.80;48.50
34927;DHT22;21132;48.308;14.274;2022-09-03T07:43:35;20.90;47.60
34927;DHT22;21132;48.308;14.274;2022-09-03T07:46:01;21.00;47.40
34927;DHT22;21132;48.308;14.274;2022-09-03T07:48:27;21.10;47.40
34927;DHT22;21132;48.308;14.274;2022-09-03T07:50:57;21.20;47.20
34927;DHT22;21132;48.308;14.274;2022-09-03T07:53:25;21.20;46.90
34927;DHT22;21132;48.308;14.274;2022-09-03T07:55:51;21.20;46.60
34927;DHT22;21132;48.308;14.274;2022-09-03T07:58:17;21.30;46.60
34927;DHT22;21132;48.308;14.274;2022-09-03T08:00:43;21.20;46.20
34927;DHT22;21132;48.308;14.274;2022-09-03T08:03:09;21.20;46.10
34927;DHT22;21132;48.308;14.274;2022-09-03T08:05:36;21.20;46.20
34927;DHT22;21132;48.308;14.274;2022-09-03T08:08:03;21.20;46.60
34927;DHT22;21132;48.308;14.274;2022-09-03T08:10:29;21.20;46.80
34927;DHT22;21132;48.308;14.274;2022-09-03T08:12:57;21.30;46.60
34927;DHT22;21132;48.308;14.274;2022-09-03T08:15:25;21.30;46.00
34927;DHT22;21132;48.308;14.274;2022-09-03T08:17:51;21.30;46.10
34927;DHT22;21132;48.308;14.274;2022-09-03T08:20:17;21.30;46.20
34927;DHT22;21132;48.308;14.274;2022-09-03T08:22:44;21.30;46.20
34927;DHT22;21132;48.308;14.274;2022-09-03T08:25:09;21.30;46.10
34927;DHT22;21132;48.308;14.274;2022-09-03T08:27:35;21.40;46.10
34927;DHT22;21132;48.308;14.274;2022-09-03T08:30:01;21.40;45.80
34927;DHT22;21132;48.308;14.274;2022-09-03T08:32:28;21.40;45.80
34927;DHT22;21132;48.308;14.274;2022-09-03T08:34:54;21.40;45.90
34927;DHT22;21132;48.308;14.274;2022-09-03T08:37:20;21.50;45.40
34927;DHT22;21132;48.308;14.274;2022-09-03T08:39:52;21.40;45.30
34927;DHT22;21132;48.308;14.274;2022-09-03T08:45:05;21.40;45.50
34927;DHT22;21132;48.308;14.274;2022-09-03T08:47:41;21.50;45.70
34927;DHT22;21132;48.308;14.274;2022-09-03T08:50:30;21.50;45.60
34927;DHT22;21132;48.308;14.274;2022-09-03T08:52:59;21.60;45.70
34927;DHT22;21132;48.308;14.274;2022-09-03T08:55:30;21.70;45.50
34927;DHT22;21132;48.308;14.274;2022-09-03T08:58:25;21.70;45.50
34927;DHT22;21132;48.308;14.274;2022-09-03T09:00:56;21.80;45.90
34927;DHT22;21132;48.308;14.274;2022-09-03T09:09:21;22.10;45.70
34927;DHT22;21132;48.308;14.274;2022-09-03T09:14:56;22.30;45.10
34927;DHT22;21132;48.308;14.274;2022-09-03T09:18:02;22.40;45.30
34927;DHT22;21132;48.308;14.274;2022-09-03T09:20:34;22.40;45.40
34927;DHT22;21132;48.308;14.274;2022-09-03T09:23:06;22.50;45.00
34927;DHT22;21132;48.308;14.274;2022-09-03T09:25:33;22.50;44.80
34927;DHT22;21132;48.308;14.274;2022-09-03T09:30:45;22.60;44.50
34927;DHT22;21132;48.308;14.274;2022-09-03T09:33:12;22.60;45.30
34927;DHT22;21132;48.308;14.274;2022-09-03T09:35:38;22.60;44.30
34927;DHT22;21132;48.308;14.274;2022-09-03T09:38:06;22.60;44.30
34927;DHT22;21132;48.308;14.274;2022-09-03T09:40:50;22.70;44.60
34927;DHT22;21132;48.308;14.274;2022-09-03T09:43:18;22.70;44.60
34927;DHT22;21132;48.308;14.274;2022-09-03T09:45:51;22.80;44.50
34927;DHT22;21132;48.308;14.274;2022-09-03T09:48:27;22.90;44.60
34927;DHT22;21132;48.308;14.274;2022-09-03T09:51:18;22.90;44.10
34927;DHT22;21132;48.308;14.274;2022-09-03T09:53:45;23.00;43.90
34927;DHT22;21132;48.308;14.274;2022-09-03T09:56:22;23.00;43.90
34927;DHT22;21132;48.308;14.274;2022-09-03T09:58:49;23.10;43.80
34927;DHT22;21132;48.308;14.274;2022-09-03T10:01:22;23.10;43.70
34927;DHT22;21132;48.308;14.274;2022-09-03T10:03:52;23.10;43.80
34927;DHT22;21132;48.308;14.274;2022-09-03T10:06:29;23.20;43.90
34927;DHT22;21132;48.308;14.274;2022-09-03T10:09:17;23.10;43.90
34927;DHT22;21132;48.308;14.274;2022-09-03T10:12:07;23.20;44.20
34927;DHT22;21132;48.308;14.274;2022-09-03T10:14:43;23.20;44.20
34927;DHT22;21132;48.308;14.274;2022-09-03T10:17:15;23.30;43.70
34927;DHT22;21132;48.308;14.274;2022-09-03T10:20:09;23.40;44.00
34927;DHT22;21132;48.308;14.274;2022-09-03T10:28:16;23.60;43.80
34927;DHT22;21132;48.308;14.274;2022-09-03T10:31:10;23.60;43.60
34927;DHT22;21132;48.308;14.274;2022-09-03T10:36:38;23.80;43.50
34927;DHT22;21132;48.308;14.274;2022-09-03T10:45:37;24.10;43.90
34927;DHT22;21132;48.308;14.274;2022-09-03T10:53:06;24.30;42.70
34927;DHT22;21132;48.308;14.274;2022-09-03T10:55:49;24.30;42.70
34927;DHT22;21132;48.308;14.274;2022-09-03T11:04:11;24.50;42.20
34927;DHT22;21132;48.308;14.274;2022-09-03T11:06:58;24.60;42.20
34927;DHT22;21132;48.308;14.274;2022-09-03T11:12:07;24.70;42.10
34927;DHT22;21132;48.308;14.274;2022-09-03T11:14:39;24.80;42.10
34927;DHT22;21132;48.308;14.274;2022-09-03T11:17:20;24.80;41.60
34927;DHT22;21132;48.308;14.274;2022-09-03T11:20:24;24.80;41.60
34927;DHT22;21132;48.308;14.274;2022-09-03T11:22:56;24.90;41.90
34927;DHT22;21132;48.308;14.274;2022-09-03T11:25:26;25.00;41.50
34927;DHT22;21132;48.308;14.274;2022-09-03T11:28:07;25.00;41.90
34927;DHT22;21132;48.308;14.274;2022-09-03T11:33:12;25.10;40.90
34927;DHT22;21132;48.308;14.274;2022-09-03T11:35:40;25.10;40.80
34927;DHT22;21132;48.308;14.274;2022-09-03T11:43:43;25.10;41.00
34927;DHT22;21132;48.308;14.274;2022-09-03T11:48:50;25.20;40.80
34927;DHT22;21132;48.308;14.274;2022-09-03T11:54:05;25.30;40.80
34927;DHT22;21132;48.308;14.274;2022-09-03T11:56:33;25.40;41.00
34927;DHT22;21132;48.308;14.274;2022-09-03T11:59:23;25.50;41.10
34927;DHT22;21132;48.308;14.274;2022-09-03T12:02:08;25.60;41.30
34927;DHT22;21132;48.308;14.274;2022-09-03T12:16:06;26.20;40.00
34927;DHT22;21132;48.308;14.274;2022-09-03T12:18:38;26.30;39.90
34927;DHT22;21132;48.308;14.274;2022-09-03T12:21:06;26.40;39.20
34927;DHT22;21132;48.308;14.274;2022-09-03T12:23:44;26.50;39.10
34927;DHT22;21132;48.308;14.274;2022-09-03T12:26:25;26.50;38.90
34927;DHT22;21132;48.308;14.274;2022-09-03T12:28:58;26.60;39.10
34927;DHT22;21132;48.308;14.274;2022-09-03T12:31:27;26.70;39.30
34927;DHT22;21132;48.308;14.274;2022-09-03T12:33:59;26.80;38.90
34927;DHT22;21132;48.308;14.274;2022-09-03T12:36:34;26.90;38.80
34927;DHT22;21132;48.308;14.274;2022-09-03T12:39:29;26.90;38.60
34927;DHT22;21132;48.308;14.274;2022-09-03T12:42:01;27.10;37.90
34927;DHT22;21132;48.308;14.274;2022-09-03T12:47:11;27.30;38.00
34927;DHT22;21132;48.308;14.274;2022-09-03T12:49:40;27.50;38.30
34927;DHT22;21132;48.308;14.274;2022-09-03T12:55:01;27.80;37.40
34927;DHT22;21132;48.308;14.274;2022-09-03T12:58:06;28.00;36.50
34927;DHT22;21132;48.308;14.274;2022-09-03T13:00:24;28.20;36.40
34927;DHT22;21132;48.308;14.274;2022-09-03T13:05:34;28.60;35.40
34927;DHT22;21132;48.308;14.274;2022-09-03T13:08:02;28.90;35.30
34927;DHT22;21132;48.308;14.274;2022-09-03T13:10:35;29.00;35.00
34927;DHT22;21132;48.308;14.274;2022-09-03T13:13:26;29.00;34.30
34927;DHT22;21132;48.308;14.274;2022-09-03T13:21:49;29.40;35.80
34927;DHT22;21132;48.308;14.274;2022-09-03T13:29:39;29.70;33.40
34927;DHT22;21132;48.308;14.274;2022-09-03T13:35:29;29.70;33.10
34927;DHT22;21132;48.308;14.274;2022-09-03T13:38:21;29.80;32.70
34927;DHT22;21132;48.308;14.274;2022-09-03T13:44:17;29.80;33.00
34927;DHT22;21132;48.308;14.274;2022-09-03T13:46:55;29.70;32.40
34927;DHT22;21132;48.308;14.274;2022-09-03T13:52:52;29.60;33.10
34927;DHT22;21132;48.308;14.274;2022-09-03T13:55:48;29.70;32.20
34927;DHT22;21132;48.308;14.274;2022-09-03T13:58:30;29.70;32.80
34927;DHT22;21132;48.308;14.274;2022-09-03T14:12:09;31.10;32.50
34927;DHT22;21132;48.308;14.274;2022-09-03T14:14:52;31.40;31.40
34927;DHT22;21132;48.308;14.274;2022-09-03T14:20:28;31.70;30.30
34927;DHT22;21132;48.308;14.274;2022-09-03T14:25:34;31.60;30.20
34927;DHT22;21132;48.308;14.274;2022-09-03T14:31:11;31.30;30.60
34927;DHT22;21132;48.308;14.274;2022-09-03T14:39:45;30.90;31.00
34927;DHT22;21132;48.308;14.274;2022-09-03T14:45:01;30.80;31.20
34927;DHT22;21132;48.308;14.274;2022-09-03T14:50:37;30.90;31.30
34927;DHT22;21132;48.308;14.274;2022-09-03T14:53:13;31.00;31.40
34927;DHT22;21132;48.308;14.274;2022-09-03T14:58:27;31.10;30.60
34927;DHT22;21132;48.308;14.274;2022-09-03T15:09:44;30.70;31.80
34927;DHT22;21132;48.308;14.274;2022-09-03T15:12:50;30.70;31.60
34927;DHT22;21132;48.308;14.274;2022-09-03T15:20:49;30.50;31.40
34927;DHT22;21132;48.308;14.274;2022-09-03T15:23:30;30.30;31.50
34927;DHT22;21132;48.308;14.274;2022-09-03T15:26:37;30.20;32.20
34927;DHT22;21132;48.308;14.274;2022-09-03T15:31:52;30.00;33.60
34927;DHT22;21132;48.308;14.274;2022-09-03T15:34:34;29.90;33.50
34927;DHT22;21132;48.308;14.274;2022-09-03T15:40:21;29.70;33.40
34927;DHT22;21132;48.308;14.274;2022-09-03T15:42:51;29.60;33.80
34927;DHT22;21132;48.308;14.274;2022-09-03T15:45:58;29.50;33.80
34927;DHT22;21132;48.308;14.274;2022-09-03T15:48:29;29.50;34.10
34927;DHT22;21132;48.308;14.274;2022-09-03T15:54:09;29.40;34.60
34927;DHT22;21132;48.308;14.274;2022-09-03T15:56:42;29.40;34.70
34927;DHT22;21132;48.308;14.274;2022-09-03T16:02:18;29.40;35.40
34927;DHT22;21132;48.308;14.274;2022-09-03T16:04:53;29.30;35.20
34927;DHT22;21132;48.308;14.274;2022-09-03T16:07:38;29.30;35.80
34927;DHT22;21132;48.308;14.274;2022-09-03T16:10:16;29.20;36.30
34927;DHT22;21132;48.308;14.274;2022-09-03T16:16:05;29.10;37.30
34927;DHT22;21132;48.308;14.274;2022-09-03T16:18:43;28.90;37.50
34927;DHT22;21132;48.308;14.274;2022-09-03T16:24:45;28.70;37.90
34927;DHT22;21132;48.308;14.274;2022-09-03T16:27:16;28.60;38.00
34927;DHT22;21132;48.308;14.274;2022-09-03T16:35:50;28.20;39.20
34927;DHT22;21132;48.308;14.274;2022-09-03T16:46:39;27.70;40.00
34927;DHT22;21132;48.308;14.274;2022-09-03T16:59:55;26.80;43.00
34927;DHT22;21132;48.308;14.274;2022-09-03T17:02:41;26.60;43.50
34927;DHT22;21132;48.308;14.274;2022-09-03T17:05:50;26.40;43.50
34927;DHT22;21132;48.308;14.274;2022-09-03T17:16:43;25.90;44.10
34927;DHT22;21132;48.308;14.274;2022-09-03T17:19:42;25.80;44.50
34927;DHT22;21132;48.308;14.274;2022-09-03T17:24:57;25.60;44.90
34927;DHT22;21132;48.308;14.274;2022-09-03T17:36:17;25.40;46.10
34927;DHT22;21132;48.308;14.274;2022-09-03T17:44:21;25.20;47.00
34927;DHT22;21132;48.308;14.274;2022-09-03T17:46:56;25.00;46.60
34927;DHT22;21132;48.308;14.274;2022-09-03T17:49:28;25.00;46.90
34927;DHT22;21132;48.308;14.274;2022-09-03T17:54:42;24.90;47.60
34927;DHT22;21132;48.308;14.274;2022-09-03T17:57:21;24.90;47.20
34927;DHT22;21132;48.308;14.274;2022-09-03T18:05:19;24.70;47.70
34927;DHT22;21132;48.308;14.274;2022-09-03T18:08:13;24.70;47.70
34927;DHT22;21132;48.308;14.274;2022-09-03T18:13:42;24.60;46.40
34927;DHT22;21132;48.308;14.274;2022-09-03T18:16:31;24.60;47.70
34927;DHT22;21132;48.308;14.274;2022-09-03T18:21:59;24.50;48.20
34927;DHT22;21132;48.308;14.274;2022-09-03T18:24:57;24.40;48.20
34927;DHT22;21132;48.308;14.274;2022-09-03T18:27:49;24.40;49.10
34927;DHT22;21132;48.308;14.274;2022-09-03T18:30:37;24.30;50.20
34927;DHT22;21132;48.308;14.274;2022-09-03T18:33:23;24.30;50.40
34927;DHT22;21132;48.308;14.274;2022-09-03T18:36:10;24.20;50.40
34927;DHT22;21132;48.308;14.274;2022-09-03T18:43:03;24.00;51.00
34927;DHT22;21132;48.308;14.274;2022-09-03T18:45:42;23.90;50.30
34927;DHT22;21132;48.308;14.274;2022-09-03T18:48:35;23.90;50.00
34927;DHT22;21132;48.308;14.274;2022-09-03T18:54:39;23.90;50.40
34927;DHT22;21132;48.308;14.274;2022-09-03T18:57:39;23.90;50.10
34927;DHT22;21132;48.308;14.274;2022-09-03T19:00:34;23.90;49.80
34927;DHT22;21132;48.308;14.274;2022-09-03T19:03:34;23.90;49.70
34927;DHT22;21132;48.308;14.274;2022-09-03T19:06:39;23.80;49.70
34927;DHT22;21132;48.308;14.274;2022-09-03T19:10:02;23.90;49.60
34927;DHT22;21132;48.308;14.274;2022-09-03T19:13:02;23.90;49.70
34927;DHT22;21132;48.308;14.274;2022-09-03T19:22:10;23.80;49.80
34927;DHT22;21132;48.308;14.274;2022-09-03T19:25:10;23.80;49.80
34927;DHT22;21132;48.308;14.274;2022-09-03T19:28:20;23.80;49.80
34927;DHT22;21132;48.308;14.274;2022-09-03T19:34:47;23.80;50.10
34927;DHT22;21132;48.308;14.274;2022-09-03T19:46:40;23.60;52.00
34927;DHT22;21132;48.308;14.274;2022-09-03T19:55:39;23.40;53.80
34927;DHT22;21132;48.308;14.274;2022-09-03T19:58:29;23.20;55.80
34927;DHT22;21132;48.308;14.274;2022-09-03T20:01:16;23.00;56.90
34927;DHT22;21132;48.308;14.274;2022-09-03T20:04:09;22.80;58.30
34927;DHT22;21132;48.308;14.274;2022-09-03T20:06:54;22.60;59.60
34927;DHT22;21132;48.308;14.274;2022-09-03T20:09:41;22.40;61.20
34927;DHT22;21132;48.308;14.274;2022-09-03T20:12:28;22.20;62.20
34927;DHT22;21132;48.308;14.274;2022-09-03T20:14:55;22.00;63.00
34927;DHT22;21132;48.308;14.274;2022-09-03T20:17:37;21.80;63.90
34927;DHT22;21132;48.308;14.274;2022-09-03T20:20:50;21.60;65.10
34927;DHT22;21132;48.308;14.274;2022-09-03T20:29:19;21.20;68.70
34927;DHT22;21132;48.308;14.274;2022-09-03T20:32:12;21.00;70.10
34927;DHT22;21132;48.308;14.274;2022-09-03T20:37:40;20.90;76.30
34927;DHT22;21132;48.308;14.274;2022-09-03T20:46:12;20.80;80.60
34927;DHT22;21132;48.308;14.274;2022-09-03T20:51:41;20.80;82.40
34927;DHT22;21132;48.308;14.274;2022-09-03T20:54:27;20.80;82.70
34927;DHT22;21132;48.308;14.274;2022-09-03T20:56:58;20.80;83.20
34927;DHT22;21132;48.308;14.274;2022-09-03T21:05:19;20.80;84.30
34927;DHT22;21132;48.308;14.274;2022-09-03T21:08:06;20.80;84.60
34927;DHT22;21132;48.308;14.274;2022-09-03T21:10:54;20.80;84.90
34927;DHT22;21132;48.308;14.274;2022-09-03T21:13:41;20.80;85.10
34927;DHT22;21132;48.308;14.274;2022-09-03T21:24:28;20.80;85.90
34927;DHT22;21132;48.308;14.274;2022-09-03T21:27:02;20.80;85.90
34927;DHT22;21132;48.308;14.274;2022-09-03T21:29:38;20.80;85.90
34927;DHT22;21132;48.308;14.274;2022-09-03T21:32:55;20.80;85.90
34927;DHT22;21132;48.308;14.274;2022-09-03T21:35:12;20.80;85.90
34927;DHT22;21132;48.308;14.274;2022-09-03T21:37:49;20.80;85.90
34927;DHT22;21132;48.308;14.274;2022-09-03T21:40:18;20.70;85.90
34927;DHT22;21132;48.308;14.274;2022-09-03T21:43:11;20.70;85.90
34927;DHT22;21132;48.308;14.274;2022-09-03T21:46:03;20.70;86.20
34927;DHT22;21132;48.308;14.274;2022-09-03T21:49:07;20.70;86.50
34927;DHT22;21132;48.308;14.274;2022-09-03T21:51:59;20.70;86.90
34927;DHT22;21132;48.308;14.274;2022-09-03T21:54:29;20.70;86.90